sensor_id;sensor_type;location;lat;lon;timestamp;pressure;altitude;pressure_sealevel;temperature;humidity
74915;BME280;63475;45.140;-75.616;2023-06-01T00:00:07;100730.91;;;26.82;44.35
74915;BME280;63475;45.140;-75.616;2023-06-01T00:01:12;100722.94;;;26.73;45.34
74915;BME280;63475;45.140;-75.616;2023-06-01T00:02:15;100731.53;;;26.64;45.14
74915;BME280;63475;45.140;-75.616;2023-06-01T00:03:18;100726.25;;;26.56;46.33
74915;BME280;63475;45.140;-75.616;2023-06-01T00:04:21;100729.44;;;26.46;47.53
74915;BME280;63475;45.140;-75.616;2023-06-01T00:05:24;100728.13;;;26.35;47.85
74915;BME280;63475;45.140;-75.616;2023-06-01T00:06:26;100726.03;;;26.24;47.79
74915;BME280;63475;45.140;-75.616;2023-06-01T00:07:32;100727.72;;;26.19;48.36
74915;BME280;63475;45.140;-75.616;2023-06-01T00:08:38;100723.91;;;26.13;48.35
74915;BME280;63475;45.140;-75.616;2023-06-01T00:09:40;100727.22;;;26.02;48.17
74915;BME280;63475;45.140;-75.616;2023-06-01T00:10:43;100724.47;;;25.95;47.49
74915;BME280;63475;45.140;-75.616;2023-06-01T00:11:46;100728.47;;;25.93;47.46
74915;BME280;63475;45.140;-75.616;2023-06-01T00:12:48;100729.28;;;25.87;47.48
74915;BME280;63475;45.140;-75.616;2023-06-01T00:13:52;100728.44;;;25.80;47.54
74915;BME280;63475;45.140;-75.616;2023-06-01T00:14:55;100725.47;;;25.74;48.83
74915;BME280;63475;45.140;-75.616;2023-06-01T00:15:57;100728.38;;;25.66;49.35
74915;BME280;63475;45.140;-75.616;2023-06-01T00:17:00;100727.09;;;25.62;49.00
74915;BME280;63475;45.140;-75.616;2023-06-01T00:18:07;100725.59;;;25.53;49.76
74915;BME280;63475;45.140;-75.616;2023-06-01T00:19:10;100737.31;;;25.47;49.73
74915;BME280;63475;45.140;-75.616;2023-06-01T00:20:14;100732.63;;;25.34;50.45
74915;BME280;63475;45.140;-75.616;2023-06-01T00:21:16;100726.66;;;25.24;50.31
74915;BME280;63475;45.140;-75.616;2023-06-01T00:22:19;100735.47;;;25.20;50.30
74915;BME280;63475;45.140;-75.616;2023-06-01T00:23:22;100726.81;;;25.16;49.97
74915;BME280;63475;45.140;-75.616;2023-06-01T00:24:24;100738.81;;;25.15;49.84
74915;BME280;63475;45.140;-75.616;2023-06-01T00:25:28;100735.66;;;25.12;50.26
74915;BME280;63475;45.140;-75.616;2023-06-01T00:26:30;100736.69;;;25.11;49.94
74915;BME280;63475;45.140;-75.616;2023-06-01T00:27:34;100741.91;;;25.05;49.88
74915;BME280;63475;45.140;-75.616;2023-06-01T00:28:37;100734.03;;;24.96;50.34
74915;BME280;63475;45.140;-75.616;2023-06-01T00:29:40;100740.53;;;24.88;50.87
74915;BME280;63475;45.140;-75.616;2023-06-01T00:30:42;100743.00;;;24.83;50.73
74915;BME280;63475;45.140;-75.616;2023-06-01T00:31:45;100745.28;;;24.80;50.06
74915;BME280;63475;45.140;-75.616;2023-06-01T00:32:48;100749.19;;;24.77;49.84
74915;BME280;63475;45.140;-75.616;2023-06-01T00:33:51;100746.47;;;24.77;49.61
74915;BME280;63475;45.140;-75.616;2023-06-01T00:34:54;100741.66;;;24.79;49.57
74915;BME280;63475;45.140;-75.616;2023-06-01T00:35:56;100735.75;;;24.76;50.30
74915;BME280;63475;45.140;-75.616;2023-06-01T00:36:59;100746.38;;;24.64;50.62
74915;BME280;63475;45.140;-75.616;2023-06-01T00:38:02;100747.81;;;24.60;49.99
74915;BME280;63475;45.140;-75.616;2023-06-01T00:39:05;100751.31;;;24.54;50.66
74915;BME280;63475;45.140;-75.616;2023-06-01T00:40:08;100753.41;;;24.52;50.42
74915;BME280;63475;45.140;-75.616;2023-06-01T00:41:11;100748.97;;;24.51;49.90
74915;BME280;63475;45.140;-75.616;2023-06-01T00:42:13;100746.03;;;24.46;50.38
74915;BME280;63475;45.140;-75.616;2023-06-01T00:43:17;100748.03;;;24.37;50.23
74915;BME280;63475;45.140;-75.616;2023-06-01T00:44:20;100752.81;;;24.35;50.45
74915;BME280;63475;45.140;-75.616;2023-06-01T00:45:23;100752.94;;;24.27;50.97
74915;BME280;63475;45.140;-75.616;2023-06-01T00:46:26;100754.59;;;24.21;51.17
74915;BME280;63475;45.140;-75.616;2023-06-01T00:47:29;100751.88;;;24.21;50.66
74915;BME280;63475;45.140;-75.616;2023-06-01T00:48:31;100753.75;;;24.21;50.78
74915;BME280;63475;45.140;-75.616;2023-06-01T00:49:34;100757.13;;;24.23;50.77
74915;BME280;63475;45.140;-75.616;2023-06-01T00:50:37;100759.38;;;24.19;51.11
74915;BME280;63475;45.140;-75.616;2023-06-01T00:51:40;100761.94;;;24.21;50.78
74915;BME280;63475;45.140;-75.616;2023-06-01T00:52:43;100760.03;;;24.21;50.59
74915;BME280;63475;45.140;-75.616;2023-06-01T00:53:47;100767.19;;;24.22;50.38
74915;BME280;63475;45.140;-75.616;2023-06-01T00:54:50;100764.47;;;24.22;50.77
74915;BME280;63475;45.140;-75.616;2023-06-01T00:55:53;100770.28;;;24.19;50.85
74915;BME280;63475;45.140;-75.616;2023-06-01T00:56:56;100771.84;;;24.28;49.98
74915;BME280;63475;45.140;-75.616;2023-06-01T00:58:00;100766.28;;;24.36;49.91
74915;BME280;63475;45.140;-75.616;2023-06-01T00:59:05;100770.09;;;24.42;49.60
74915;BME280;63475;45.140;-75.616;2023-06-01T01:00:08;100769.72;;;24.45;49.94
74915;BME280;63475;45.140;-75.616;2023-06-01T01:01:12;100771.59;;;24.45;49.68
74915;BME280;63475;45.140;-75.616;2023-06-01T01:02:39;100774.78;;;24.48;49.57
74915;BME280;63475;45.140;-75.616;2023-06-01T01:03:42;100767.03;;;24.52;49.51
74915;BME280;63475;45.140;-75.616;2023-06-01T01:04:49;100774.63;;;24.56;49.34
74915;BME280;63475;45.140;-75.616;2023-06-01T01:06:13;100774.81;;;24.55;49.71
74915;BME280;63475;45.140;-75.616;2023-06-01T01:07:25;100776.25;;;24.51;50.16
74915;BME280;63475;45.140;-75.616;2023-06-01T01:08:36;100779.16;;;24.49;49.86
74915;BME280;63475;45.140;-75.616;2023-06-01T01:11:06;100783.16;;;24.47;50.04
74915;BME280;63475;45.140;-75.616;2023-06-01T01:13:23;100784.59;;;24.43;50.07
74915;BME280;63475;45.140;-75.616;2023-06-01T01:14:39;100791.34;;;24.47;49.59
74915;BME280;63475;45.140;-75.616;2023-06-01T01:15:58;100790.88;;;24.43;49.98
74915;BME280;63475;45.140;-75.616;2023-06-01T01:17:16;100805.94;;;24.39;49.95
74915;BME280;63475;45.140;-75.616;2023-06-01T01:18:36;100794.31;;;24.30;50.33
74915;BME280;63475;45.140;-75.616;2023-06-01T01:19:58;100801.19;;;24.26;50.41
74915;BME280;63475;45.140;-75.616;2023-06-01T01:21:03;100804.97;;;24.25;50.18
74915;BME280;63475;45.140;-75.616;2023-06-01T01:24:13;100812.09;;;24.26;50.23
74915;BME280;63475;45.140;-75.616;2023-06-01T01:29:19;100819.63;;;24.10;51.01
74915;BME280;63475;45.140;-75.616;2023-06-01T01:30:26;100818.78;;;24.09;51.27
74915;BME280;63475;45.140;-75.616;2023-06-01T01:31:30;100816.00;;;24.02;51.04
74915;BME280;63475;45.140;-75.616;2023-06-01T01:32:35;100820.13;;;23.98;50.84
74915;BME280;63475;45.140;-75.616;2023-06-01T01:33:41;100815.91;;;23.96;50.64
74915;BME280;63475;45.140;-75.616;2023-06-01T01:34:45;100823.06;;;23.97;50.98
74915;BME280;63475;45.140;-75.616;2023-06-01T01:35:50;100818.63;;;23.96;51.33
74915;BME280;63475;45.140;-75.616;2023-06-01T01:36:54;100823.63;;;23.92;51.19
74915;BME280;63475;45.140;-75.616;2023-06-01T01:37:57;100822.09;;;23.90;51.36
74915;BME280;63475;45.140;-75.616;2023-06-01T01:38:59;100821.28;;;23.89;51.20
74915;BME280;63475;45.140;-75.616;2023-06-01T01:40:02;100820.41;;;23.89;51.10
74915;BME280;63475;45.140;-75.616;2023-06-01T01:41:05;100819.56;;;23.88;51.11
74915;BME280;63475;45.140;-75.616;2023-06-01T01:42:08;100827.94;;;23.87;51.20
74915;BME280;63475;45.140;-75.616;2023-06-01T01:43:11;100825.78;;;23.82;51.10
74915;BME280;63475;45.140;-75.616;2023-06-01T01:44:14;100824.50;;;23.78;51.53
74915;BME280;63475;45.140;-75.616;2023-06-01T01:45:17;100832.00;;;23.76;51.66
74915;BME280;63475;45.140;-75.616;2023-06-01T01:46:29;100827.78;;;23.74;51.74
74915;BME280;63475;45.140;-75.616;2023-06-01T01:50:12;100827.31;;;23.70;51.58
74915;BME280;63475;45.140;-75.616;2023-06-01T01:52:48;100830.50;;;23.59;51.93
74915;BME280;63475;45.140;-75.616;2023-06-01T01:53:55;100834.66;;;23.55;51.68
74915;BME280;63475;45.140;-75.616;2023-06-01T01:55:01;100832.97;;;23.54;51.47
74915;BME280;63475;45.140;-75.616;2023-06-01T01:56:04;100840.47;;;23.52;51.84
74915;BME280;63475;45.140;-75.616;2023-06-01T01:57:08;100839.50;;;23.45;52.01
74915;BME280;63475;45.140;-75.616;2023-06-01T01:58:11;100834.31;;;23.35;52.56
74915;BME280;63475;45.140;-75.616;2023-06-01T01:59:15;100837.97;;;23.27;52.69
74915;BME280;63475;45.140;-75.616;2023-06-01T02:00:19;100841.25;;;23.23;53.01
74915;BME280;63475;45.140;-75.616;2023-06-01T02:01:22;100836.16;;;23.20;52.78
74915;BME280;63475;45.140;-75.616;2023-06-01T02:02:25;100837.19;;;23.19;53.08
74915;BME280;63475;45.140;-75.616;2023-06-01T02:03:28;100843.00;;;23.16;53.44
74915;BME280;63475;45.140;-75.616;2023-06-01T02:04:31;100845.28;;;23.12;53.50
74915;BME280;63475;45.140;-75.616;2023-06-01T02:05:34;100846.31;;;23.11;53.52
74915;BME280;63475;45.140;-75.616;2023-06-01T02:06:37;100841.59;;;23.05;53.56
74915;BME280;63475;45.140;-75.616;2023-06-01T02:07:40;100840.06;;;23.02;53.59
74915;BME280;63475;45.140;-75.616;2023-06-01T02:08:42;100845.53;;;23.02;53.47
74915;BME280;63475;45.140;-75.616;2023-06-01T02:09:45;100852.00;;;23.01;53.50
74915;BME280;63475;45.140;-75.616;2023-06-01T02:10:48;100850.97;;;23.02;53.21
74915;BME280;63475;45.140;-75.616;2023-06-01T02:11:50;100848.91;;;23.04;53.29
74915;BME280;63475;45.140;-75.616;2023-06-01T02:12:53;100853.50;;;23.04;53.39
74915;BME280;63475;45.140;-75.616;2023-06-01T02:13:55;100853.50;;;23.04;53.31
74915;BME280;63475;45.140;-75.616;2023-06-01T02:14:58;100856.22;;;23.04;53.16
74915;BME280;63475;45.140;-75.616;2023-06-01T02:16:01;100855.19;;;23.05;52.91
74915;BME280;63475;45.140;-75.616;2023-06-01T02:17:04;100857.25;;;23.03;53.33
74915;BME280;63475;45.140;-75.616;2023-06-01T02:18:07;100860.34;;;23.00;52.98
74915;BME280;63475;45.140;-75.616;2023-06-01T02:19:10;100857.78;;;22.98;53.07
74915;BME280;63475;45.140;-75.616;2023-06-01T02:20:13;100859.00;;;22.96;53.81
74915;BME280;63475;45.140;-75.616;2023-06-01T02:21:16;100856.19;;;22.89;53.52
74915;BME280;63475;45.140;-75.616;2023-06-01T02:22:19;100862.84;;;22.87;53.74
74915;BME280;63475;45.140;-75.616;2023-06-01T02:23:22;100855.22;;;22.82;53.74
74915;BME280;63475;45.140;-75.616;2023-06-01T02:24:24;100857.63;;;22.77;54.18
74915;BME280;63475;45.140;-75.616;2023-06-01T02:25:28;100862.56;;;22.74;54.03
74915;BME280;63475;45.140;-75.616;2023-06-01T02:26:30;100860.19;;;22.70;53.79
74915;BME280;63475;45.140;-75.616;2023-06-01T02:27:33;100863.09;;;22.69;54.05
74915;BME280;63475;45.140;-75.616;2023-06-01T02:28:37;100869.56;;;22.68;54.16
74915;BME280;63475;45.140;-75.616;2023-06-01T02:29:40;100867.91;;;22.67;54.46
74915;BME280;63475;45.140;-75.616;2023-06-01T02:30:43;100861.31;;;22.61;54.25
74915;BME280;63475;45.140;-75.616;2023-06-01T02:31:52;100861.84;;;22.57;54.01
74915;BME280;63475;45.140;-75.616;2023-06-01T02:32:55;100863.53;;;22.58;53.88
74915;BME280;63475;45.140;-75.616;2023-06-01T02:33:58;100871.03;;;22.56;54.04
74915;BME280;63475;45.140;-75.616;2023-06-01T02:35:01;100868.47;;;22.54;54.06
74915;BME280;63475;45.140;-75.616;2023-06-01T02:36:04;100863.88;;;22.55;53.95
74915;BME280;63475;45.140;-75.616;2023-06-01T02:37:07;100873.44;;;22.51;54.11
74915;BME280;63475;45.140;-75.616;2023-06-01T02:38:10;100871.25;;;22.46;54.25
74915;BME280;63475;45.140;-75.616;2023-06-01T02:39:12;100864.31;;;22.44;54.27
74915;BME280;63475;45.140;-75.616;2023-06-01T02:40:15;100874.53;;;22.42;54.16
74915;BME280;63475;45.140;-75.616;2023-06-01T02:41:18;100867.38;;;22.41;54.45
74915;BME280;63475;45.140;-75.616;2023-06-01T02:42:20;100873.34;;;22.36;54.06
74915;BME280;63475;45.140;-75.616;2023-06-01T02:43:23;100875.72;;;22.39;54.04
74915;BME280;63475;45.140;-75.616;2023-06-01T02:44:26;100873.19;;;22.38;53.49
74915;BME280;63475;45.140;-75.616;2023-06-01T02:45:28;100865.38;;;22.34;53.83
74915;BME280;63475;45.140;-75.616;2023-06-01T02:46:31;100866.75;;;22.30;53.93
74915;BME280;63475;45.140;-75.616;2023-06-01T02:47:35;100869.81;;;22.27;54.06
74915;BME280;63475;45.140;-75.616;2023-06-01T02:48:37;100868.13;;;22.26;53.88
74915;BME280;63475;45.140;-75.616;2023-06-01T02:49:40;100868.97;;;22.27;54.03
74915;BME280;63475;45.140;-75.616;2023-06-01T02:50:42;100873.75;;;22.25;54.15
74915;BME280;63475;45.140;-75.616;2023-06-01T02:51:45;100864.91;;;22.23;53.79
74915;BME280;63475;45.140;-75.616;2023-06-01T02:52:48;100871.75;;;22.19;54.31
74915;BME280;63475;45.140;-75.616;2023-06-01T02:53:50;100871.09;;;22.17;54.05
74915;BME280;63475;45.140;-75.616;2023-06-01T02:54:53;100876.69;;;22.15;54.04
74915;BME280;63475;45.140;-75.616;2023-06-01T02:55:56;100872.47;;;22.13;54.02
74915;BME280;63475;45.140;-75.616;2023-06-01T02:56:58;100866.00;;;22.14;54.18
74915;BME280;63475;45.140;-75.616;2023-06-01T02:58:01;100871.63;;;22.12;54.19
74915;BME280;63475;45.140;-75.616;2023-06-01T02:59:05;100877.56;;;22.08;54.04
74915;BME280;63475;45.140;-75.616;2023-06-01T03:00:08;100870.28;;;22.00;54.44
74915;BME280;63475;45.140;-75.616;2023-06-01T03:01:17;100866.06;;;21.97;54.34
74915;BME280;63475;45.140;-75.616;2023-06-01T03:02:23;100871.84;;;21.94;54.55
74915;BME280;63475;45.140;-75.616;2023-06-01T03:03:26;100874.72;;;21.93;54.58
74915;BME280;63475;45.140;-75.616;2023-06-01T03:04:28;100867.78;;;21.90;54.57
74915;BME280;63475;45.140;-75.616;2023-06-01T03:05:35;100867.94;;;21.89;54.62
74915;BME280;63475;45.140;-75.616;2023-06-01T03:06:37;100864.56;;;21.87;54.92
74915;BME280;63475;45.140;-75.616;2023-06-01T03:07:42;100866.59;;;21.85;54.34
74915;BME280;63475;45.140;-75.616;2023-06-01T03:08:45;100867.28;;;21.87;54.79
74915;BME280;63475;45.140;-75.616;2023-06-01T03:09:48;100860.31;;;21.84;54.78
74915;BME280;63475;45.140;-75.616;2023-06-01T03:10:51;100866.09;;;21.81;54.57
74915;BME280;63475;45.140;-75.616;2023-06-01T03:11:53;100867.69;;;21.76;55.09
74915;BME280;63475;45.140;-75.616;2023-06-01T03:12:56;100863.63;;;21.72;55.23
74915;BME280;63475;45.140;-75.616;2023-06-01T03:13:59;100860.75;;;21.65;55.32
74915;BME280;63475;45.140;-75.616;2023-06-01T03:15:02;100860.75;;;21.65;55.38
74915;BME280;63475;45.140;-75.616;2023-06-01T03:16:05;100858.19;;;21.63;55.25
74915;BME280;63475;45.140;-75.616;2023-06-01T03:17:08;100863.97;;;21.60;55.59
74915;BME280;63475;45.140;-75.616;2023-06-01T03:18:10;100862.44;;;21.58;55.70
74915;BME280;63475;45.140;-75.616;2023-06-01T03:19:13;100863.47;;;21.57;55.86
74915;BME280;63475;45.140;-75.616;2023-06-01T03:20:16;100863.63;;;21.55;55.53
74915;BME280;63475;45.140;-75.616;2023-06-01T03:21:19;100857.75;;;21.52;55.58
74915;BME280;63475;45.140;-75.616;2023-06-01T03:22:22;100861.47;;;21.51;55.70
74915;BME280;63475;45.140;-75.616;2023-06-01T03:23:24;100862.50;;;21.50;55.68
74915;BME280;63475;45.140;-75.616;2023-06-01T03:24:27;100865.38;;;21.48;55.58
74915;BME280;63475;45.140;-75.616;2023-06-01T03:25:31;100863.00;;;21.45;55.87
74915;BME280;63475;45.140;-75.616;2023-06-01T03:26:35;100862.16;;;21.45;55.56
74915;BME280;63475;45.140;-75.616;2023-06-01T03:27:39;100861.31;;;21.44;55.61
74915;BME280;63475;45.140;-75.616;2023-06-01T03:28:42;100861.81;;;21.40;56.06
74915;BME280;63475;45.140;-75.616;2023-06-01T03:29:45;100867.59;;;21.37;56.04
74915;BME280;63475;45.140;-75.616;2023-06-01T03:30:48;100869.63;;;21.34;55.75
74915;BME280;63475;45.140;-75.616;2023-06-01T03:31:51;100872.50;;;21.33;56.34
74915;BME280;63475;45.140;-75.616;2023-06-01T03:32:53;100865.75;;;21.29;55.99
74915;BME280;63475;45.140;-75.616;2023-06-01T03:33:56;100871.19;;;21.29;56.14
74915;BME280;63475;45.140;-75.616;2023-06-01T03:34:59;100870.34;;;21.28;56.42
74915;BME280;63475;45.140;-75.616;2023-06-01T03:36:01;100870.81;;;21.24;56.11
74915;BME280;63475;45.140;-75.616;2023-06-01T03:37:06;100871.66;;;21.24;56.16
74915;BME280;63475;45.140;-75.616;2023-06-01T03:38:09;100874.72;;;21.21;56.27
74915;BME280;63475;45.140;-75.616;2023-06-01T03:39:12;100870.97;;;21.22;56.27
74915;BME280;63475;45.140;-75.616;2023-06-01T03:40:15;100869.47;;;21.20;56.31
74915;BME280;63475;45.140;-75.616;2023-06-01T03:41:18;100867.09;;;21.17;56.36
74915;BME280;63475;45.140;-75.616;2023-06-01T03:42:22;100873.53;;;21.16;56.37
74915;BME280;63475;45.140;-75.616;2023-06-01T03:43:24;100871.81;;;21.15;56.69
74915;BME280;63475;45.140;-75.616;2023-06-01T03:44:27;100875.56;;;21.14;56.61
74915;BME280;63475;45.140;-75.616;2023-06-01T03:45:30;100874.88;;;21.12;56.46
74915;BME280;63475;45.140;-75.616;2023-06-01T03:46:32;100876.91;;;21.10;56.67
74915;BME280;63475;45.140;-75.616;2023-06-01T03:47:35;100884.75;;;21.05;56.73
74915;BME280;63475;45.140;-75.616;2023-06-01T03:48:38;100885.06;;;21.01;56.85
74915;BME280;63475;45.140;-75.616;2023-06-01T03:49:40;100881.69;;;20.99;56.99
74915;BME280;63475;45.140;-75.616;2023-06-01T03:50:43;100885.56;;;20.97;57.06
74915;BME280;63475;45.140;-75.616;2023-06-01T03:51:46;100894.03;;;20.94;57.10
74915;BME280;63475;45.140;-75.616;2023-06-01T03:52:49;100884.53;;;20.90;57.13
74915;BME280;63475;45.140;-75.616;2023-06-01T03:53:51;100882.38;;;20.85;57.27
74915;BME280;63475;45.140;-75.616;2023-06-01T03:54:54;100886.94;;;20.85;57.76
74915;BME280;63475;45.140;-75.616;2023-06-01T03:55:58;100889.81;;;20.83;57.57
74915;BME280;63475;45.140;-75.616;2023-06-01T03:57:00;100884.56;;;20.82;57.37
74915;BME280;63475;45.140;-75.616;2023-06-01T03:58:03;100884.72;;;20.80;57.33
74915;BME280;63475;45.140;-75.616;2023-06-01T03:59:07;100883.19;;;20.78;57.53
74915;BME280;63475;45.140;-75.616;2023-06-01T04:00:10;100889.97;;;20.74;57.51
74915;BME280;63475;45.140;-75.616;2023-06-01T04:01:22;100887.59;;;20.71;57.70
74915;BME280;63475;45.140;-75.616;2023-06-01T04:02:25;100885.19;;;20.67;57.79
74915;BME280;63475;45.140;-75.616;2023-06-01T04:03:29;100888.25;;;20.64;57.94
74915;BME280;63475;45.140;-75.616;2023-06-01T04:04:31;100890.31;;;20.62;58.01
74915;BME280;63475;45.140;-75.616;2023-06-01T04:05:35;100890.47;;;20.61;57.89
74915;BME280;63475;45.140;-75.616;2023-06-01T04:06:38;100890.63;;;20.59;57.96
74915;BME280;63475;45.140;-75.616;2023-06-01T04:07:48;100885.72;;;20.55;58.29
74915;BME280;63475;45.140;-75.616;2023-06-01T04:08:51;100888.41;;;20.55;58.43
74915;BME280;63475;45.140;-75.616;2023-06-01T04:09:57;100884.34;;;20.51;58.42
74915;BME280;63475;45.140;-75.616;2023-06-01T04:11:00;100884.47;;;20.49;58.80
74915;BME280;63475;45.140;-75.616;2023-06-01T04:12:03;100886.50;;;20.47;59.07
74915;BME280;63475;45.140;-75.616;2023-06-01T04:13:07;100885.66;;;20.47;58.72
74915;BME280;63475;45.140;-75.616;2023-06-01T04:14:10;100892.41;;;20.43;58.54
74915;BME280;63475;45.140;-75.616;2023-06-01T04:15:14;100886.66;;;20.38;59.11
74915;BME280;63475;45.140;-75.616;2023-06-01T04:16:18;100882.94;;;20.39;58.84
74915;BME280;63475;45.140;-75.616;2023-06-01T04:17:21;100892.94;;;20.38;58.49
74915;BME280;63475;45.140;-75.616;2023-06-01T04:18:23;100888.34;;;20.39;59.09
74915;BME280;63475;45.140;-75.616;2023-06-01T04:19:26;100886.66;;;20.38;58.99
74915;BME280;63475;45.140;-75.616;2023-06-01T04:20:29;100887.34;;;20.40;59.15
74915;BME280;63475;45.140;-75.616;2023-06-01T04:21:33;100892.09;;;20.38;58.99
74915;BME280;63475;45.140;-75.616;2023-06-01T04:22:36;100895.97;;;20.35;58.97
74915;BME280;63475;45.140;-75.616;2023-06-01T04:23:39;100888.84;;;20.34;59.21
74915;BME280;63475;45.140;-75.616;2023-06-01T04:24:44;100896.97;;;20.34;59.36
74915;BME280;63475;45.140;-75.616;2023-06-01T04:25:47;100896.13;;;20.33;59.21
74915;BME280;63475;45.140;-75.616;2023-06-01T04:26:52;100890.19;;;20.30;59.40
74915;BME280;63475;45.140;-75.616;2023-06-01T04:27:55;100893.06;;;20.28;59.52
74915;BME280;63475;45.140;-75.616;2023-06-01T04:28:58;100894.75;;;20.29;59.34
74915;BME280;63475;45.140;-75.616;2023-06-01T04:30:03;100899.16;;;20.30;59.32
74915;BME280;63475;45.140;-75.616;2023-06-01T04:31:05;100899.66;;;20.26;59.45
74915;BME280;63475;45.140;-75.616;2023-06-01T04:32:09;100899.13;;;20.22;59.48
74915;BME280;63475;45.140;-75.616;2023-06-01T04:33:15;100898.44;;;20.20;59.73
74915;BME280;63475;45.140;-75.616;2023-06-01T04:34:18;100899.66;;;20.18;59.86
74915;BME280;63475;45.140;-75.616;2023-06-01T04:35:21;100895.22;;;20.17;60.15
74915;BME280;63475;45.140;-75.616;2023-06-01T04:36:23;100896.09;;;20.17;59.89
74915;BME280;63475;45.140;-75.616;2023-06-01T04:37:26;100892.69;;;20.15;59.98
74915;BME280;63475;45.140;-75.616;2023-06-01T04:38:31;100891.31;;;20.11;60.14
74915;BME280;63475;45.140;-75.616;2023-06-01T04:39:34;100892.47;;;20.09;60.12
74915;BME280;63475;45.140;-75.616;2023-06-01T04:40:37;100892.66;;;20.07;60.01
74915;BME280;63475;45.140;-75.616;2023-06-01T04:41:40;100888.41;;;20.05;60.30
74915;BME280;63475;45.140;-75.616;2023-06-01T04:42:43;100883.47;;;20.00;60.35
74915;BME280;63475;45.140;-75.616;2023-06-01T04:43:52;100883.78;;;19.97;60.41
74915;BME280;63475;45.140;-75.616;2023-06-01T04:44:55;100889.22;;;19.97;60.55
74915;BME280;63475;45.140;-75.616;2023-06-01T04:46:00;100885.84;;;19.95;60.55
74915;BME280;63475;45.140;-75.616;2023-06-01T04:47:06;100886.00;;;19.93;60.73
74915;BME280;63475;45.140;-75.616;2023-06-01T04:48:09;100888.19;;;19.90;60.88
74915;BME280;63475;45.140;-75.616;2023-06-01T04:49:12;100895.63;;;19.88;60.82
74915;BME280;63475;45.140;-75.616;2023-06-01T04:50:16;100888.50;;;19.87;60.92
74915;BME280;63475;45.140;-75.616;2023-06-01T04:51:19;100889.66;;;19.84;60.92
74915;BME280;63475;45.140;-75.616;2023-06-01T04:52:23;100892.53;;;19.83;61.51
74915;BME280;63475;45.140;-75.616;2023-06-01T04:53:26;100895.19;;;19.75;61.95
74915;BME280;63475;45.140;-75.616;2023-06-01T04:54:29;100894.81;;;19.70;62.17
74915;BME280;63475;45.140;-75.616;2023-06-01T04:55:32;100897.47;;;19.61;62.17
74915;BME280;63475;45.140;-75.616;2023-06-01T04:56:34;100897.25;;;19.55;62.26
74915;BME280;63475;45.140;-75.616;2023-06-01T04:57:37;100901.31;;;19.51;62.38
74915;BME280;63475;45.140;-75.616;2023-06-01T04:58:46;100900.78;;;19.47;62.13
74915;BME280;63475;45.140;-75.616;2023-06-01T04:59:49;100893.50;;;19.48;62.21
74915;BME280;63475;45.140;-75.616;2023-06-01T05:00:52;100898.75;;;19.49;62.10
74915;BME280;63475;45.140;-75.616;2023-06-01T05:01:56;100901.47;;;19.49;62.28
74915;BME280;63475;45.140;-75.616;2023-06-01T05:02:58;100893.34;;;19.49;62.15
74915;BME280;63475;45.140;-75.616;2023-06-01T05:04:02;100888.78;;;19.50;61.93
74915;BME280;63475;45.140;-75.616;2023-06-01T05:05:06;100895.03;;;19.50;62.35
74915;BME280;63475;45.140;-75.616;2023-06-01T05:06:13;100891.50;;;19.50;62.30
74915;BME280;63475;45.140;-75.616;2023-06-01T05:07:16;100893.50;;;19.48;62.14
74915;BME280;63475;45.140;-75.616;2023-06-01T05:08:18;100886.56;;;19.45;62.55
74915;BME280;63475;45.140;-75.616;2023-06-01T05:09:21;100892.13;;;19.44;62.55
74915;BME280;63475;45.140;-75.616;2023-06-01T05:10:24;100890.56;;;19.41;62.29
74915;BME280;63475;45.140;-75.616;2023-06-01T05:11:26;100887.03;;;19.41;62.42
74915;BME280;63475;45.140;-75.616;2023-06-01T05:12:29;100880.22;;;19.37;63.19
74915;BME280;63475;45.140;-75.616;2023-06-01T05:13:36;100886.09;;;19.32;63.28
74915;BME280;63475;45.140;-75.616;2023-06-01T05:14:38;100884.56;;;19.29;63.70
74915;BME280;63475;45.140;-75.616;2023-06-01T05:15:42;100886.06;;;19.24;63.88
74915;BME280;63475;45.140;-75.616;2023-06-01T05:16:44;100878.41;;;19.19;63.87
74915;BME280;63475;45.140;-75.616;2023-06-01T05:17:47;100884.00;;;19.18;63.81
74915;BME280;63475;45.140;-75.616;2023-06-01T05:18:51;100888.69;;;19.16;64.10
74915;BME280;63475;45.140;-75.616;2023-06-01T05:19:54;100881.91;;;19.12;64.12
74915;BME280;63475;45.140;-75.616;2023-06-01T05:20:59;100886.31;;;19.13;63.55
74915;BME280;63475;45.140;-75.616;2023-06-01T05:22:02;100884.59;;;19.12;63.54
74915;BME280;63475;45.140;-75.616;2023-06-01T05:23:05;100887.47;;;19.10;63.48
74915;BME280;63475;45.140;-75.616;2023-06-01T05:24:08;100879.19;;;19.12;63.56
74915;BME280;63475;45.140;-75.616;2023-06-01T05:25:11;100894.72;;;19.10;63.96
74915;BME280;63475;45.140;-75.616;2023-06-01T05:26:13;100888.28;;;19.03;64.89
74915;BME280;63475;45.140;-75.616;2023-06-01T05:27:17;100885.34;;;18.96;64.86
74915;BME280;63475;45.140;-75.616;2023-06-01T05:28:20;100881.94;;;18.94;64.40
74915;BME280;63475;45.140;-75.616;2023-06-01T05:29:23;100886.50;;;18.93;64.25
74915;BME280;63475;45.140;-75.616;2023-06-01T05:30:25;100889.03;;;18.95;64.36
74915;BME280;63475;45.140;-75.616;2023-06-01T05:31:28;100885.50;;;18.94;64.03
74915;BME280;63475;45.140;-75.616;2023-06-01T05:32:31;100887.34;;;18.94;63.85
74915;BME280;63475;45.140;-75.616;2023-06-01T05:33:33;100882.78;;;18.94;63.74
74915;BME280;63475;45.140;-75.616;2023-06-01T05:34:36;100889.19;;;18.93;63.62
74915;BME280;63475;45.140;-75.616;2023-06-01T05:35:39;100883.41;;;18.88;63.93
74915;BME280;63475;45.140;-75.616;2023-06-01T05:36:41;100882.97;;;18.83;64.06
74915;BME280;63475;45.140;-75.616;2023-06-01T05:37:44;100882.97;;;18.83;64.06